Have a Safe July 4th! 

Flight Track Log - Related Links

Times and Time Zones

All times are in EDT time to prevent confusion due to time zone crossing. See the FRG53 flight status page for this flight to view local times or setup timezone preferences in your user account.

Time Position Orientation Groundspeed Altitude Reporting Facility
EDT Latitude Longitude Course Direction KTS MPH feet Rate Location/Type
Fri 12:56:07 PM 32.1036 -110.9247 137° Southeast 162 186 3,200  Level Albuquerque Center
Fri 12:56:38 PM 32.0869 -110.9064 137° Southeast 161 185 4,300 2,044 Climbing Albuquerque Center
Fri 12:57:38 PM 32.0669 -110.8592 117° Southeast 162 186 6,300 1,800 Climbing Albuquerque Center
Fri 12:58:18 PM 32.0592 -110.8322 109° East 163 188 7,300 1,869 Climbing Albuquerque Center
Fri 12:58:39 PM 32.0444 -110.8100 128° Southeast 166 191 8,200 2,226 Climbing Albuquerque Center
Fri 12:59:20 PM 32.0311 -110.7733 113° Southeast 170 196 9,600 1,864 Climbing Albuquerque Center
Fri 01:00:22 PM 32.0075 -110.7269 121° Southeast 169 194 11,400 1,694 Climbing Albuquerque Center
Fri 01:01:24 PM 31.9842 -110.6767 119° Southeast 171 197 13,100 1,548 Climbing Albuquerque Center
Fri 01:02:26 PM 31.9583 -110.6211 119° Southeast 190 219 14,600 1,597 Climbing Albuquerque Center
Fri 01:03:28 PM 31.9283 -110.5592 120° Southeast 209 241 16,400 1,742 Climbing Albuquerque Center
Fri 01:04:30 PM 31.9264 -110.4789 92° East 219 252 18,200 1,536 Climbing Albuquerque Center
Fri 01:05:33 PM 31.9525 -110.4097 66° East 230 265 19,600 1,248 Climbing Albuquerque Center
Fri 01:06:35 PM 31.9725 -110.3344 73° East 235 270 20,800 1,161 Climbing Albuquerque Center
Fri 01:07:37 PM 31.9933 -110.2572 72° East 243 280 22,000 1,258 Climbing Albuquerque Center
Fri 01:08:39 PM 32.0150 -110.1831 71° East 243 280 23,400 1,113 Climbing Albuquerque Center
Fri 01:09:41 PM 32.0581 -110.1236 49° Northeast 236 272 24,300 1,065 Climbing Albuquerque Center
Fri 01:10:43 PM 32.1119 -110.0539 48° Northeast 238 274 25,600 1,065 Climbing Albuquerque Center
Fri 01:11:45 PM 32.1531 -109.9881 54° Northeast 243 280 26,500 677 Climbing Albuquerque Center
Fri 01:12:47 PM 32.2000 -109.9222 50° Northeast 257 296 27,000 242 Climbing Albuquerque Center
Fri 01:13:49 PM 32.2542 -109.8467 50° Northeast 290 334 27,000  Level Albuquerque Center
Fri 01:14:51 PM 32.3119 -109.7667 49° Northeast 313 360 27,000  Level Albuquerque Center
Fri 01:15:53 PM 32.3842 -109.6658 50° Northeast 331 381 27,000  Level Albuquerque Center
Fri 01:16:55 PM 32.4458 -109.5808 49° Northeast 335 386 27,000  Level Albuquerque Center
Fri 01:17:58 PM 32.5067 -109.4953 50° Northeast 337 388 27,000  Level Albuquerque Center
Fri 01:19:00 PM 32.5678 -109.4094 50° Northeast 337 388 27,000  Level Albuquerque Center
Fri 01:20:02 PM 32.6275 -109.3253 50° Northeast 337 388 27,000  Level Albuquerque Center
Fri 01:21:04 PM 32.6881 -109.2400 50° Northeast 337 388 27,000  Level Albuquerque Center
Fri 01:22:06 PM 32.7608 -109.1367 50° Northeast 338 389 27,000  Level Albuquerque Center
Fri 01:23:08 PM 32.8156 -109.0594 50° Northeast 337 388 27,000  Level Albuquerque Center
Fri 01:24:10 PM 32.8778 -108.9725 50° Northeast 340 391 27,000  Level Albuquerque Center
Fri 01:25:12 PM 32.9494 -108.8694 50° Northeast 341 392 27,000  Level Albuquerque Center
Fri 01:26:14 PM 33.0078 -108.7822 51° Northeast 340 391 27,000  Level Albuquerque Center
Fri 01:27:16 PM 33.0689 -108.6967 50° Northeast 340 391 27,000  Level Albuquerque Center
Fri 01:28:18 PM 33.1283 -108.6108 50° Northeast 340 391 27,000  Level Albuquerque Center
Fri 01:29:21 PM 33.1878 -108.5244 51° Northeast 339 390 27,000  Level Albuquerque Center
Fri 01:30:23 PM 33.2586 -108.4222 50° Northeast 339 390 27,000  Level Albuquerque Center
Fri 01:31:25 PM 33.3186 -108.3350 51° Northeast 339 390 27,000  Level Albuquerque Center
Fri 01:32:27 PM 33.3769 -108.2492 51° Northeast 339 390 27,000  Level Albuquerque Center
Fri 01:33:29 PM 33.4367 -108.1628 50° Northeast 339 390 27,000  Level Albuquerque Center
Fri 01:34:31 PM 33.4953 -108.0767 51° Northeast 338 389 27,000  Level Albuquerque Center
Fri 01:35:33 PM 33.5558 -107.9878 51° Northeast 337 388 27,000  Level Albuquerque Center
Fri 01:36:35 PM 33.6153 -107.9000 51° Northeast 337 388 27,000  Level Albuquerque Center
Fri 01:37:37 PM 33.6861 -107.7975 50° Northeast 336 387 27,000  Level Albuquerque Center
Fri 01:38:40 PM 33.7444 -107.7103 51° Northeast 335 386 27,000  Level Albuquerque Center
Fri 01:39:42 PM 33.8006 -107.6264 51° Northeast 335 386 27,000  Level Albuquerque Center
Fri 01:40:44 PM 33.8592 -107.5400 51° Northeast 335 386 27,000  Level Albuquerque Center
Fri 01:41:46 PM 33.9292 -107.4369 51° Northeast 335 386 27,000  Level Albuquerque Center
Fri 01:42:48 PM 33.9878 -107.3489 51° Northeast 335 386 27,000  Level Albuquerque Center
Fri 01:43:50 PM 34.0467 -107.2625 51° Northeast 335 386 27,000  Level Albuquerque Center
Fri 01:44:52 PM 34.1050 -107.1747 51° Northeast 335 386 27,000  Level Albuquerque Center
Fri 01:45:54 PM 34.1631 -107.0869 51° Northeast 335 386 27,000  Level Albuquerque Center
Fri 01:46:56 PM 34.2228 -106.9986 51° Northeast 336 387 27,000  Level Albuquerque Center
Fri 01:47:58 PM 34.2919 -106.8917 52° Northeast 336 387 27,000  Level Albuquerque Center
Fri 01:49:01 PM 34.3561 -106.7997 50° Northeast 338 389 27,000  Level Albuquerque Center
Fri 01:50:03 PM 34.4092 -106.7064 55° Northeast 337 388 27,000  Level Albuquerque Center
Fri 01:51:05 PM 34.4672 -106.6072 55° Northeast 337 388 27,000  Level Albuquerque Center
Fri 01:52:07 PM 34.5150 -106.5278 54° Northeast 338 389 27,000  Level Albuquerque Center
Fri 01:53:09 PM 34.5753 -106.4244 55° Northeast 337 388 27,000  Level Albuquerque Center
Fri 01:54:11 PM 34.6294 -106.3339 54° Northeast 333 383 27,000 -48 Level Albuquerque Center
Fri 01:55:13 PM 34.6842 -106.2414 54° Northeast 334 384 26,900  Descending Albuquerque Center
Fri 01:56:15 PM 34.7497 -106.1281 55° Northeast 340 391 27,000 48 Climbing Albuquerque Center
Fri 01:57:17 PM 34.8033 -106.0369 54° Northeast 337 388 27,000  Level Albuquerque Center
Fri 01:58:19 PM 34.8575 -105.9442 55° Northeast 337 388 27,000  Level Albuquerque Center
Fri 01:59:21 PM 34.9119 -105.8514 54° Northeast 337 388 27,000  Level Albuquerque Center
Fri 02:00:24 PM 34.9661 -105.7581 55° Northeast 337 388 27,000  Level Albuquerque Center
Fri 02:01:26 PM 35.0206 -105.6647 55° Northeast 337 388 27,000  Level Albuquerque Center
Fri 02:02:28 PM 35.0864 -105.5511 55° Northeast 338 389 27,000  Level Albuquerque Center
Fri 02:03:30 PM 35.1403 -105.4567 55° Northeast 338 389 27,000  Level Albuquerque Center
Fri 02:04:32 PM 35.1956 -105.3619 54° Northeast 338 389 27,000  Level Albuquerque Center
Fri 02:05:34 PM 35.2494 -105.2667 55° Northeast 338 389 27,000  Level Albuquerque Center
Fri 02:06:36 PM 35.3033 -105.1719 55° Northeast 337 388 27,000  Level Albuquerque Center
Fri 02:07:38 PM 35.3586 -105.0756 55° Northeast 338 389 27,000  Level Albuquerque Center
Fri 02:08:40 PM 35.4136 -104.9803 55° Northeast 338 389 27,000  Level Albuquerque Center
Fri 02:09:42 PM 35.4772 -104.8689 55° Northeast 338 389 27,000  Level Albuquerque Center
Fri 02:10:44 PM 35.5308 -104.7714 56° Northeast 338 389 27,000  Level Albuquerque Center
Fri 02:11:47 PM 35.5858 -104.6756 55° Northeast 338 389 27,000  Level Albuquerque Center
Fri 02:12:49 PM 35.6419 -104.5775 55° Northeast 340 391 27,000  Level Albuquerque Center
Fri 02:13:51 PM 35.6967 -104.4808 55° Northeast 341 392 27,000  Level Albuquerque Center
Fri 02:14:53 PM 35.7511 -104.3839 55° Northeast 341 392 27,000  Level Albuquerque Center
Fri 02:15:55 PM 35.8056 -104.2861 56° Northeast 341 392 27,000  Level Albuquerque Center
Fri 02:16:57 PM 35.8592 -104.1906 55° Northeast 340 391 27,000 -48 Level Albuquerque Center
Fri 02:17:59 PM 35.9222 -104.0775 55° Northeast 339 390 26,900  Descending Albuquerque Center
Fri 02:19:01 PM 35.9764 -103.9811 55° Northeast 339 390 27,000 48 Climbing Albuquerque Center
Fri 02:20:03 PM 36.0297 -103.8856 55° Northeast 338 389 27,000 -48 Level Albuquerque Center
Fri 02:21:05 PM 36.0825 -103.7881 56° Northeast 338 389 26,900 -48 Descending Albuquerque Center
Fri 02:22:07 PM 36.1364 -103.6922 55° Northeast 338 389 26,900  Level Albuquerque Center
Fri 02:23:10 PM 36.1892 -103.5936 56° Northeast 338 389 26,900  Level Albuquerque Center
Fri 02:24:12 PM 36.2414 -103.4978 56° Northeast 337 388 26,900  Level Albuquerque Center
Fri 02:25:14 PM 36.3028 -103.3847 56° Northeast 337 388 26,900  Level Albuquerque Center
Fri 02:26:16 PM 36.3561 -103.2867 56° Northeast 337 388 26,900  Level Albuquerque Center
Fri 02:27:18 PM 36.4081 -103.1889 57° Northeast 337 388 26,900  Level Albuquerque Center
Fri 02:28:20 PM 36.4614 -103.0914 56° Northeast 337 388 26,900  Level Albuquerque Center
Fri 02:29:22 PM 36.5136 -102.9922 57° Northeast 338 389 26,900  Level Albuquerque Center
Fri 02:30:24 PM 36.5669 -102.8939 56° Northeast 338 389 26,900  Level Albuquerque Center
Fri 02:31:26 PM 36.6228 -102.7883 57° Northeast 338 389 26,900  Level Albuquerque Center
Fri 02:32:28 PM 36.6808 -102.6814 56° Northeast 338 389 26,900  Level Albuquerque Center
Fri 02:33:30 PM 36.7311 -102.5867 56° Northeast 339 390 26,900  Level Albuquerque Center
Fri 02:34:33 PM 36.7789 -102.4939 57° Northeast 339 390 26,900  Level Albuquerque Center
Fri 02:35:35 PM 36.8403 -102.3764 57° Northeast 339 390 26,900  Level Albuquerque Center
Fri 02:36:37 PM 36.8950 -102.2753 56° Northeast 339 390 26,900  Level Albuquerque Center
Fri 02:37:39 PM 36.9447 -102.1811 57° Northeast 339 390 26,900  Level Albuquerque Center
Fri 02:38:39 PM 36.9928 -102.0850 58° Northeast 339 390 26,900  Level Kansas City Center
Fri 02:39:43 PM 37.0517 -101.9739 56° Northeast 339 390 26,900  Level Kansas City Center
Fri 02:40:44 PM 37.1008 -101.8786 57° Northeast 340 391 26,900  Level Kansas City Center
Fri 02:41:48 PM 37.1594 -101.7675 56° Northeast 341 392 26,900  Level Kansas City Center
Fri 02:42:48 PM 37.2081 -101.6711 58° Northeast 341 392 26,900  Level Kansas City Center
Fri 02:43:52 PM 37.2664 -101.5592 57° Northeast 341 392 26,900 48 Level Kansas City Center
Fri 02:44:53 PM 37.3158 -101.4628 57° Northeast 341 392 27,000 49 Climbing Kansas City Center
Fri 02:45:54 PM 37.3733 -101.3506 57° Northeast 341 392 27,000  Level Kansas City Center
Fri 02:46:58 PM 37.4222 -101.2533 58° Northeast 342 394 27,000  Level Kansas City Center
Fri 02:47:59 PM 37.4800 -101.1400 57° Northeast 342 394 27,000  Level Kansas City Center
Fri 02:49:00 PM 37.5242 -101.0531 57° Northeast 342 394 27,000  Level Kansas City Center
Fri 02:50:04 PM 37.5853 -100.9319 57° Northeast 342 394 27,000  Level Kansas City Center
Fri 02:51:04 PM 37.6367 -100.8300 57° Northeast 342 394 27,000  Level Kansas City Center
Fri 02:52:08 PM 37.6897 -100.7256 57° Northeast 349 402 27,000  Level Kansas City Center
Fri 02:53:09 PM 37.7403 -100.6250 58° Northeast 343 395 27,000  Level Kansas City Center
Fri 02:54:12 PM 37.7956 -100.5150 58° Northeast 343 395 27,000  Level Kansas City Center
Fri 02:55:13 PM 37.8447 -100.4164 58° Northeast 344 396 27,000  Level Kansas City Center
Fri 02:56:17 PM 37.9017 -100.3014 58° Northeast 345 397 27,000  Level Kansas City Center
Fri 02:57:18 PM 37.9503 -100.2025 58° Northeast 345 397 27,000  Level Kansas City Center
Fri 02:58:19 PM 38.0072 -100.0875 58° Northeast 345 397 27,000  Level Kansas City Center
Fri 02:59:22 PM 38.0564 -99.9872 58° Northeast 345 397 27,000  Level Kansas City Center
Fri 03:00:23 PM 38.1139 -99.8706 58° Northeast 346 398 27,000  Level Kansas City Center
Fri 03:01:27 PM 38.1619 -99.7697 59° Northeast 347 399 27,000  Level Kansas City Center
Fri 03:02:28 PM 38.2189 -99.6525 58° Northeast 347 399 27,000  Level Kansas City Center
Fri 03:03:30 PM 38.2681 -99.5536 58° Northeast 347 399 27,000  Level Kansas City Center
Fri 03:04:33 PM 38.3203 -99.4467 58° Northeast 348 400 27,000  Level Kansas City Center
Fri 03:05:34 PM 38.3706 -99.3406 59° Northeast 348 400 27,000  Level Kansas City Center
Fri 03:06:35 PM 38.4211 -99.2358 58° Northeast 348 400 27,000  Level Kansas City Center
Fri 03:07:39 PM 38.4822 -99.1092 58° Northeast 348 400 27,000  Level Kansas City Center
Fri 03:08:39 PM 38.5314 -99.0022 60° Northeast 348 400 27,000  Level Kansas City Center
Fri 03:09:44 PM 38.5828 -98.8956 58° Northeast 348 400 27,000  Level Kansas City Center
Fri 03:10:45 PM 38.6342 -98.7869 59° Northeast 353 406 27,000  Level Kansas City Center
Fri 03:11:46 PM 38.6664 -98.6664 71° East 358 412 27,000  Level Kansas City Center
Fri 03:12:49 PM 38.6942 -98.5431 74° East 358 412 27,000  Level Kansas City Center
Fri 03:13:49 PM 38.7397 -98.4308 62° Northeast 358 412 27,000  Level Kansas City Center
Fri 03:14:54 PM 38.8025 -98.3039 58° Northeast 354 407 27,000  Level Kansas City Center
Fri 03:15:54 PM 38.8531 -98.1956 59° Northeast 354 407 27,000  Level Kansas City Center
Fri 03:16:58 PM 38.9039 -98.0872 59° Northeast 354 407 27,000  Level Kansas City Center
Fri 03:17:59 PM 38.9550 -97.9786 59° Northeast 354 407 27,000  Level Kansas City Center
Fri 03:19:00 PM 39.0053 -97.8681 60° Northeast 354 407 27,000  Level Kansas City Center
Fri 03:20:03 PM 39.0589 -97.7542 59° Northeast 351 404 27,000  Level Kansas City Center
Fri 03:21:04 PM 39.1161 -97.6311 59° Northeast 353 406 27,000  Level Kansas City Center
Fri 03:22:08 PM 39.1647 -97.5269 59° Northeast 354 407 27,000  Level Kansas City Center
Fri 03:23:53 PM 39.2497 -97.3406 59° Northeast 357 411 27,000  Level Minneapolis Center
Fri 03:24:55 PM 39.3100 -97.2086 59° Northeast 356 410 27,000  Level Minneapolis Center
Fri 03:25:56 PM 39.3611 -97.0981 59° Northeast 356 410 27,000  Level Minneapolis Center
Fri 03:26:58 PM 39.4119 -96.9875 59° Northeast 357 411 27,000  Level Minneapolis Center
Fri 03:27:59 PM 39.4617 -96.8758 60° Northeast 357 411 27,000  Level Minneapolis Center
Fri 03:29:01 PM 39.5122 -96.7631 60° Northeast 358 412 27,000  Level Minneapolis Center
Fri 03:30:02 PM 39.5633 -96.6506 59° Northeast 359 413 27,000  Level Minneapolis Center
Fri 03:31:04 PM 39.6131 -96.5383 60° Northeast 359 413 27,000  Level Minneapolis Center
Fri 03:32:05 PM 39.6639 -96.4244 60° Northeast 360 414 27,000  Level Minneapolis Center
Fri 03:33:07 PM 39.7239 -96.2894 60° Northeast 362 417 27,000  Level Minneapolis Center
Fri 03:34:08 PM 39.7742 -96.1772 60° Northeast 362 417 27,000  Level Minneapolis Center
Fri 03:35:10 PM 39.8244 -96.0619 60° Northeast 363 418 27,000  Level Minneapolis Center
Fri 03:36:11 PM 39.8739 -95.9475 61° Northeast 364 419 27,000  Level Minneapolis Center
Fri 03:37:13 PM 39.9233 -95.8339 60° Northeast 364 419 27,000  Level Minneapolis Center
Fri 03:38:14 PM 39.9750 -95.7183 60° Northeast 364 419 27,000  Level Minneapolis Center
Fri 03:39:16 PM 40.0247 -95.6042 60° Northeast 364 419 27,000  Level Minneapolis Center
Fri 03:40:17 PM 40.0739 -95.4917 60° Northeast 362 417 27,000  Level Minneapolis Center
Fri 03:41:19 PM 40.1331 -95.3539 61° Northeast 362 417 27,000  Level Minneapolis Center
Fri 03:42:20 PM 40.1817 -95.2397 61° Northeast 362 417 27,000  Level Minneapolis Center
Fri 03:43:22 PM 40.2314 -95.1247 60° Northeast 362 417 27,000  Level Minneapolis Center
Fri 03:44:23 PM 40.2803 -95.0100 61° Northeast 363 418 27,000  Level Minneapolis Center
Fri 03:45:25 PM 40.3294 -94.8942 61° Northeast 363 418 27,000  Level Minneapolis Center
Fri 03:45:55 PM 40.3581 -94.8275 61° Northeast 362 417 27,000  Level Kansas City Center
Fri 03:46:26 PM 40.3783 -94.7778 62° Northeast 363 418 27,000  Level Minneapolis Center
Fri 03:47:28 PM 40.4267 -94.6614 61° Northeast 363 418 27,000  Level Minneapolis Center
Fri 03:48:30 PM 40.4819 -94.5306 61° Northeast 364 419 27,000  Level Minneapolis Center
Fri 03:49:31 PM 40.5297 -94.4150 61° Northeast 364 419 27,000  Level Minneapolis Center
Fri 03:50:33 PM 40.5794 -94.2975 61° Northeast 364 419 27,000  Level Minneapolis Center
Fri 03:51:34 PM 40.6286 -94.1808 61° Northeast 365 420 27,000  Level Minneapolis Center
Fri 03:52:36 PM 40.6761 -94.0631 62° Northeast 365 420 27,000  Level Minneapolis Center
Fri 03:53:38 PM 40.7344 -93.9225 61° Northeast 365 420 27,000  Level Minneapolis Center
Fri 03:54:39 PM 40.7828 -93.8056 61° Northeast 365 420 27,000  Level Minneapolis Center
Fri 03:55:41 PM 40.8308 -93.6864 62° Northeast 365 420 27,000  Level Minneapolis Center
Fri 03:56:42 PM 40.8794 -93.5675 62° Northeast 368 423 27,000  Level Minneapolis Center
Fri 03:57:44 PM 40.9339 -93.4544 57° Northeast 367 422 27,000  Level Minneapolis Center
Fri 03:58:46 PM 41.0058 -93.3681 42° Northeast 355 409 27,000  Level Minneapolis Center
Fri 03:59:47 PM 41.0894 -93.2547 46° Northeast 356 410 27,000  Level Minneapolis Center
Fri 04:00:49 PM 41.1586 -93.1619 45° Northeast 356 410 27,000  Level Minneapolis Center
Fri 04:01:51 PM 41.2150 -93.0533 55° Northeast 359 413 27,000  Level Minneapolis Center
Fri 04:02:52 PM 41.2636 -92.9333 62° Northeast 368 423 27,000  Level Minneapolis Center
Fri 04:03:54 PM 41.3153 -92.8153 60° Northeast 368 423 27,000  Level Minneapolis Center
Fri 04:04:56 PM 41.3669 -92.6964 60° Northeast 369 425 27,000  Level Minneapolis Center
Fri 04:06:05 PM 41.4267 -92.5508 61° Northeast 370 426 27,000  Level Chicago Center
Fri 04:07:07 PM 41.4783 -92.4314 60° Northeast 372 428 27,000  Level Chicago Center
Fri 04:08:09 PM 41.5314 -92.3067 60° Northeast 372 428 27,000  Level Chicago Center
Fri 04:09:11 PM 41.5825 -92.1872 60° Northeast 372 428 27,000  Level Chicago Center
Fri 04:10:14 PM 41.6417 -92.0422 61° Northeast 372 428 27,000  Level Chicago Center
Fri 04:11:16 PM 41.6925 -91.9208 61° Northeast 377 434 27,000  Level Chicago Center
Fri 04:12:18 PM 41.7436 -91.7994 61° Northeast 377 434 27,000  Level Chicago Center
Fri 04:13:20 PM 41.7944 -91.6781 61° Northeast 377 434 27,000  Level Chicago Center
Fri 04:14:22 PM 41.8544 -91.5311 61° Northeast 378 435 27,000  Level Chicago Center
Fri 04:15:24 PM 41.9053 -91.4097 61° Northeast 378 435 27,000  Level Chicago Center
Fri 04:16:26 PM 41.9556 -91.2853 61° Northeast 378 435 27,000  Level Chicago Center
Fri 04:17:28 PM 42.0047 -91.1639 61° Northeast 378 435 27,000  Level Chicago Center
Fri 04:18:31 PM 42.0547 -91.0428 61° Northeast 378 435 27,000  Level Chicago Center
Fri 04:19:33 PM 42.1144 -90.8933 62° Northeast 379 436 27,000  Level Chicago Center
Fri 04:20:35 PM 42.1639 -90.7706 61° Northeast 379 436 27,000  Level Chicago Center
Fri 04:21:37 PM 42.2131 -90.6458 62° Northeast 379 436 27,000  Level Chicago Center
Fri 04:22:39 PM 42.2617 -90.5222 62° Northeast 378 435 27,000 -48 Level Chicago Center
Fri 04:23:41 PM 42.3222 -90.3722 61° Northeast 382 440 26,900 -677 Descending Chicago Center
Fri 04:24:43 PM 42.3706 -90.2433 63° Northeast 390 449 25,600 -1,403 Descending Chicago Center
Fri 04:25:45 PM 42.4236 -90.1086 62° Northeast 405 466 24,000 -1,355 Descending Chicago Center
Fri 04:26:47 PM 42.4753 -89.9761 62° Northeast 406 467 22,800 -1,283 Descending Chicago Center
Fri 04:28:52 PM 42.5803 -89.7061 65° Northeast 396 456 20,000 -1,348 Descending Chicago Center
Fri 04:29:54 PM 42.6394 -89.5544 62° Northeast 384 442 18,600 -1,161 Descending Chicago Center
Fri 04:30:56 PM 42.6856 -89.4344 62° Northeast 367 422 17,600 -1,065 Descending Chicago Center
Fri 04:31:58 PM 42.7283 -89.3181 63° Northeast 351 404 16,400 -1,258 Descending Chicago Center
Fri 04:33:00 PM 42.7700 -89.2083 63° Northeast 332 382 15,000 -1,258 Descending Chicago Center
Fri 04:34:02 PM 42.8103 -89.1069 62° Northeast 311 358 13,800 -1,258 Descending Chicago Center
Fri 04:35:04 PM 42.8489 -89.0053 63° Northeast 304 350 12,400 -1,548 Descending Chicago Center
Fri 04:36:06 PM 42.8969 -88.8772 63° Northeast 314 361 10,600 -1,548 Descending Chicago Center
Fri 04:37:08 PM 42.9381 -88.7667 63° Northeast 328 377 9,200 -1,392 Descending Chicago Center
Fri 04:38:11 PM 42.9775 -88.6619 63° Northeast 317 365 7,700 -1,440 Descending Chicago Center
Fri 04:39:13 PM 42.9975 -88.5550 76° East 300 345 6,200 -1,452 Descending Chicago Center
Fri 04:40:15 PM 43.0111 -88.4450 80° East 300 345 4,700 -1,548 Descending Chicago Center
Fri 04:41:17 PM 43.0422 -88.3425 67° East 275 316 3,000 -1,355 Descending Chicago Center
Fri 04:42:19 PM 43.0525 -88.2972 73° East 204 235 1,900 -774 Descending Chicago Center
Fri 04:43:21 PM 43.0414 -88.2450 106° East 169 194 1,400 -484 Descending Chicago Center
Fri 04:45:00 PM 43.0333 -88.2333 160° South  Level FlightAware Approximate

Login

Don't have an account? Register now (free) for customized features, flight alerts, and more!